createdAt,value
2019-03-01T00:23:22.844Z,74.4
2019-03-01T00:40:02.145Z,74.4
2019-03-01T00:56:40.403Z,74.8
2019-03-01T01:13:19.120Z,74.8
2019-03-01T01:29:57.957Z,74.8
2019-03-01T01:46:36.613Z,75.2
2019-03-01T02:03:15.467Z,75.6
2019-03-01T02:19:53.924Z,75.6
2019-03-01T02:36:32.323Z,76.0
2019-03-01T02:53:10.670Z,76.8
2019-03-01T03:09:48.941Z,76.8
2019-03-01T03:26:27.225Z,76.8
2019-03-01T03:43:05.621Z,76.8
2019-03-01T03:59:44.067Z,76.8
2019-03-01T04:16:22.505Z,77.2
2019-03-01T04:33:00.981Z,77.6
2019-03-01T04:49:39.465Z,78.0
2019-03-01T05:06:18.068Z,78.4
2019-03-01T05:22:56.273Z,78.4
2019-03-01T05:39:34.649Z,78.4
2019-03-01T05:56:12.993Z,79.2
2019-03-01T06:12:51.413Z,79.2
2019-03-01T06:29:29.878Z,78.8
2019-03-01T06:46:08.181Z,79.2
2019-03-01T07:02:46.573Z,79.2
2019-03-01T07:19:25.190Z,78.8
2019-03-01T07:36:03.797Z,78.8
2019-03-01T08:09:20.885Z,78.8
2019-03-01T08:25:59.890Z,79.2
2019-03-01T08:42:38.027Z,79.2
2019-03-01T08:59:20.140Z,79.6
2019-03-01T09:15:55.354Z,79.6
2019-03-01T09:32:34.879Z,78.8
2019-03-01T09:40:54.564Z,79.2
2019-03-01T09:57:33.286Z,77.6
2019-03-01T10:14:13.047Z,76.8
2019-03-01T10:24:12.756Z,77.2
2019-03-01T10:30:52.322Z,77.6
2019-03-01T10:37:31.711Z,78.0
2019-03-01T10:54:09.785Z,78.4
2019-03-01T11:10:47.581Z,78.0
2019-03-01T11:27:25.109Z,78.0
2019-03-01T11:44:02.228Z,77.6
2019-03-01T12:00:39.381Z,78.0
2019-03-01T12:17:16.363Z,77.6
2019-03-01T12:33:53.495Z,76.4
2019-03-01T12:50:30.348Z,76.4
2019-03-01T13:07:07.293Z,76.0
2019-03-01T13:23:45.518Z,75.6
2019-03-01T13:40:24.482Z,75.2
2019-03-01T13:56:58.120Z,75.2
2019-03-01T14:13:35.153Z,74.4
2019-03-01T14:30:11.858Z,74.4
2019-03-01T15:03:25.728Z,73.6
2019-03-01T15:20:03.409Z,73.6
2019-03-01T15:36:39.241Z,73.2
2019-03-01T15:53:24.962Z,72.8
2019-03-01T16:09:51.927Z,72.4
2019-03-01T16:26:30.023Z,72.0
2019-03-01T16:43:05.165Z,72.0
2019-03-01T16:59:42.789Z,71.6
2019-03-01T17:16:20.468Z,70.8
2019-03-01T17:32:54.209Z,70.4
2019-03-01T17:49:33.077Z,70.4
2019-03-01T18:06:07.112Z,70.0
2019-03-01T18:22:43.590Z,70.0
2019-03-01T18:39:20.400Z,69.2
2019-03-01T18:55:56.481Z,69.2
2019-03-01T19:12:32.975Z,68.8
2019-03-01T19:29:09.466Z,68.4
2019-03-01T19:45:45.722Z,68.0
2019-03-01T20:02:21.729Z,68.0
2019-03-01T20:18:57.738Z,68.4
2019-03-01T20:35:33.856Z,68.4
2019-03-01T20:52:09.784Z,68.0
2019-03-01T21:08:45.389Z,68.0
2019-03-01T21:25:21.470Z,67.6
2019-03-01T21:41:57.300Z,68.0
2019-03-01T21:58:33.020Z,68.4
2019-03-01T22:15:08.674Z,68.4
2019-03-01T22:31:44.629Z,69.2
2019-03-01T22:48:20.079Z,69.6
2019-03-01T23:04:55.735Z,70.4
2019-03-01T23:21:32.617Z,70.8
2019-03-01T23:38:07.154Z,71.2
2019-03-01T23:54:44.303Z,71.2
